createdAt,value
2018-07-20T00:00:02.990Z,0
2018-07-20T00:05:03.098Z,0
2018-07-20T00:10:02.677Z,0
2018-07-20T00:15:03.173Z,0
2018-07-20T00:20:02.574Z,0
2018-07-20T00:25:02.990Z,0
2018-07-20T00:30:02.468Z,0
2018-07-20T00:35:03.080Z,0
2018-07-20T00:40:02.649Z,0
2018-07-20T00:45:03.057Z,0
2018-07-20T00:50:02.479Z,0
2018-07-20T00:55:02.888Z,0
2018-07-20T01:00:03.239Z,0
2018-07-20T01:05:02.620Z,0
2018-07-20T01:10:03.121Z,0
2018-07-20T01:15:02.537Z,0
2018-07-20T01:20:02.925Z,0
2018-07-20T01:25:02.411Z,0
2018-07-20T01:30:02.813Z,0
2018-07-20T01:35:02.370Z,0
2018-07-20T01:40:02.794Z,0
2018-07-20T01:45:03.230Z,0
2018-07-20T01:50:02.792Z,0
2018-07-20T01:55:03.319Z,0
2018-07-20T02:00:02.747Z,0
2018-07-20T02:05:03.123Z,0
2018-07-20T02:10:02.946Z,0
2018-07-20T02:15:02.378Z,0
2018-07-20T02:20:02.803Z,0
2018-07-20T02:25:03.226Z,0
2018-07-20T02:30:02.666Z,0
2018-07-20T02:35:03.102Z,0
2018-07-20T02:40:02.539Z,0
2018-07-20T02:45:03.318Z,0
2018-07-20T02:50:02.753Z,0
2018-07-20T02:55:03.160Z,1
2018-07-20T03:00:03.093Z,2
2018-07-20T03:05:02.429Z,5
2018-07-20T03:10:02.925Z,10
2018-07-20T03:15:03.291Z,19
2018-07-20T03:20:02.710Z,26
2018-07-20T03:25:03.080Z,48
2018-07-20T03:30:02.529Z,55
2018-07-20T03:35:03.028Z,69
2018-07-20T03:40:02.523Z,93
2018-07-20T03:45:02.977Z,131
2018-07-20T03:50:02.690Z,221
2018-07-20T03:55:03.162Z,317
2018-07-20T04:00:02.534Z,398
2018-07-20T04:05:02.937Z,483
2018-07-20T04:10:02.419Z,580
2018-07-20T04:15:02.818Z,680
2018-07-20T04:20:03.233Z,782
2018-07-20T04:25:02.686Z,904
2018-07-20T04:30:02.579Z,1000
2018-07-20T04:35:02.977Z,1000
2018-07-20T04:40:02.357Z,1000
2018-07-20T04:45:02.752Z,1000
2018-07-20T04:50:03.303Z,1000
2018-07-20T04:55:03.267Z,1000
2018-07-20T05:00:02.683Z,1000
2018-07-20T05:05:03.158Z,2000
2018-07-20T05:10:02.611Z,2000
2018-07-20T05:15:03.103Z,2000
2018-07-20T05:20:02.530Z,2000
2018-07-20T05:25:03.023Z,2000
2018-07-20T05:30:02.480Z,2000
2018-07-20T05:35:02.929Z,2000
2018-07-20T05:40:02.429Z,2000
2018-07-20T05:50:02.987Z,3000
2018-07-20T05:55:02.350Z,3000
2018-07-20T06:00:02.916Z,3000
2018-07-20T06:05:03.273Z,3000
2018-07-20T06:10:02.693Z,3000
2018-07-20T06:15:03.147Z,3000
2018-07-20T06:20:02.530Z,3000
2018-07-20T06:25:02.908Z,4000
2018-07-20T06:30:02.325Z,4000
2018-07-20T06:35:02.759Z,4000
2018-07-20T06:40:03.223Z,4000
2018-07-20T06:45:02.573Z,4000
2018-07-20T06:50:03.055Z,4000
2018-07-20T06:55:02.451Z,4000
2018-07-20T07:00:02.965Z,4000
2018-07-20T07:05:02.461Z,4000
2018-07-20T07:10:03.004Z,5000
2018-07-20T07:15:02.441Z,5000
2018-07-20T07:20:03.076Z,5000
2018-07-20T07:25:02.512Z,5000
2018-07-20T07:30:03.458Z,5000
2018-07-20T07:35:03.015Z,6000
2018-07-20T07:40:02.483Z,6000
2018-07-20T07:45:02.871Z,6000
2018-07-20T07:50:02.422Z,6000
2018-07-20T07:55:02.827Z,6000
2018-07-20T08:00:03.202Z,7000
2018-07-20T08:05:02.800Z,9000
2018-07-20T08:10:02.929Z,26000
2018-07-20T08:15:02.396Z,30000
2018-07-20T08:20:02.946Z,28000
2018-07-20T08:25:02.374Z,30000
2018-07-20T08:30:02.827Z,32000
2018-07-20T08:35:02.412Z,33000
2018-07-20T08:40:02.853Z,35000
2018-07-20T08:45:03.241Z,42000
2018-07-20T08:50:02.643Z,39000
2018-07-20T08:55:03.060Z,39000
2018-07-20T09:00:02.765Z,41000
2018-07-20T09:05:02.886Z,48000
2018-07-20T09:10:02.465Z,48000
2018-07-20T09:15:02.805Z,48000
2018-07-20T09:20:03.255Z,46000
2018-07-20T09:25:02.691Z,47000
2018-07-20T09:30:03.212Z,43000
2018-07-20T09:35:02.616Z,31000
2018-07-20T09:40:03.113Z,40000
2018-07-20T09:45:02.560Z,44000
2018-07-20T09:50:02.988Z,48000
2018-07-20T09:55:02.423Z,50000
2018-07-20T10:00:02.911Z,45000
2018-07-20T10:05:02.515Z,47000
2018-07-20T10:10:02.426Z,46000
2018-07-20T10:15:02.823Z,49000
2018-07-20T10:20:03.445Z,49000
2018-07-20T10:25:03.205Z,49000
2018-07-20T10:30:02.686Z,48000
2018-07-20T10:35:03.147Z,47000
2018-07-20T10:40:02.533Z,47000
2018-07-20T10:45:02.885Z,47000
2018-07-20T10:50:03.289Z,50000
2018-07-20T10:55:02.716Z,48000
2018-07-20T11:00:03.124Z,50000
2018-07-20T11:05:02.543Z,48000
2018-07-20T11:10:03.061Z,45000
2018-07-20T11:15:02.532Z,40000
2018-07-20T11:20:03.075Z,44000
2018-07-20T11:25:02.521Z,48000
2018-07-20T11:30:02.962Z,49000
2018-07-20T11:35:02.480Z,43000
2018-07-20T11:40:02.997Z,39000
2018-07-20T11:45:02.372Z,40000
2018-07-20T11:50:02.903Z,34000
2018-07-20T11:55:02.399Z,33000
2018-07-20T12:00:02.874Z,41000
2018-07-20T12:05:02.457Z,40000
2018-07-20T12:10:02.944Z,41000
2018-07-20T12:15:02.379Z,38000
2018-07-20T12:20:02.803Z,34000
2018-07-20T12:25:03.276Z,37000
2018-07-20T12:30:02.665Z,35000
2018-07-20T12:35:03.105Z,47000
2018-07-20T12:40:02.542Z,42000
2018-07-20T12:45:03.001Z,42000
2018-07-20T12:50:02.525Z,45000
2018-07-20T12:55:02.981Z,40000
2018-07-20T13:00:02.337Z,43000
2018-07-20T13:05:02.751Z,43000
2018-07-20T13:10:03.221Z,42000
2018-07-20T13:15:02.600Z,40000
2018-07-20T13:20:03.070Z,36000
2018-07-20T13:25:02.676Z,34000
2018-07-20T13:30:03.233Z,26000
2018-07-20T13:35:02.724Z,33000
2018-07-20T13:40:03.179Z,35000
2018-07-20T13:45:02.641Z,33000
2018-07-20T13:50:03.054Z,34000
2018-07-20T13:55:02.455Z,31000
2018-07-20T14:00:02.794Z,31000
2018-07-20T14:05:03.310Z,30000
2018-07-20T14:10:02.719Z,30000
2018-07-20T14:15:03.204Z,30000
2018-07-20T14:20:02.654Z,30000
2018-07-20T14:25:03.180Z,29000
2018-07-20T14:30:02.533Z,29000
2018-07-20T14:35:03.077Z,28000
2018-07-20T14:40:02.765Z,27000
2018-07-20T14:45:02.778Z,27000
2018-07-20T14:50:03.261Z,27000
2018-07-20T14:55:02.699Z,23000
2018-07-20T15:00:03.078Z,21000
2018-07-20T15:05:02.445Z,23000
2018-07-20T15:10:02.861Z,21000
2018-07-20T15:15:03.211Z,23000
2018-07-20T15:20:02.689Z,19000
2018-07-20T15:25:03.145Z,20000
2018-07-20T15:30:02.572Z,20000
2018-07-20T15:35:03.099Z,21000
2018-07-20T15:40:02.533Z,19000
2018-07-20T15:45:02.856Z,16000
2018-07-20T15:50:03.506Z,14000
2018-07-20T15:55:02.849Z,16000
2018-07-20T16:00:03.440Z,14000
2018-07-20T16:05:02.503Z,10000
2018-07-20T16:10:03.077Z,16000
2018-07-20T16:15:02.464Z,16000
2018-07-20T16:20:02.917Z,14000
2018-07-20T16:25:02.368Z,12000
2018-07-20T16:30:02.926Z,15000
2018-07-20T16:40:03.104Z,12000
2018-07-20T16:45:02.528Z,9000
2018-07-20T16:55:02.557Z,10000
2018-07-20T17:00:03.047Z,9000
2018-07-20T17:05:02.459Z,7000
2018-07-20T17:10:02.844Z,6000
2018-07-20T17:15:03.189Z,5000
2018-07-20T17:20:02.642Z,6000
2018-07-20T17:25:02.986Z,5000
2018-07-20T17:30:02.432Z,3000
2018-07-20T17:35:02.895Z,4000
2018-07-20T17:40:02.353Z,3000
2018-07-20T17:45:02.853Z,4000
2018-07-20T17:50:02.372Z,3000
2018-07-20T17:55:02.743Z,2000
2018-07-20T18:00:03.259Z,3000
2018-07-20T18:05:02.807Z,3000
2018-07-20T18:10:02.316Z,2000
2018-07-20T18:15:02.738Z,2000
2018-07-20T18:20:03.287Z,2000
2018-07-20T18:25:02.720Z,2000
2018-07-20T18:30:03.165Z,1000
2018-07-20T18:35:02.646Z,1000
2018-07-20T18:40:03.135Z,1000
2018-07-20T18:45:02.600Z,1000
2018-07-20T18:50:03.092Z,1000
2018-07-20T18:55:02.503Z,1000
2018-07-20T19:00:03.022Z,1000
2018-07-20T19:05:02.494Z,958
2018-07-20T19:10:03.001Z,824
2018-07-20T19:15:02.433Z,712
2018-07-20T19:20:02.900Z,581
2018-07-20T19:25:03.267Z,455
2018-07-20T19:30:02.821Z,353
2018-07-20T19:35:03.286Z,250
2018-07-20T19:40:02.764Z,88
2018-07-20T19:45:03.152Z,70
2018-07-20T19:50:02.560Z,62
2018-07-20T19:55:03.008Z,42
2018-07-20T20:00:02.401Z,30
2018-07-20T20:05:02.929Z,14
2018-07-20T20:10:02.529Z,8
2018-07-20T20:15:03.027Z,4
2018-07-20T20:20:02.590Z,1
2018-07-20T20:25:03.031Z,1
2018-07-20T20:30:02.448Z,0
2018-07-20T20:35:02.956Z,0
2018-07-20T20:40:02.455Z,0
2018-07-20T20:45:03.001Z,0
2018-07-20T20:50:02.701Z,0
2018-07-20T20:55:03.211Z,0
2018-07-20T21:00:02.644Z,0
2018-07-20T21:05:03.165Z,0
2018-07-20T21:10:02.605Z,0
2018-07-20T21:15:03.392Z,0
2018-07-20T21:20:02.859Z,0
2018-07-20T21:25:02.351Z,0
2018-07-20T21:30:02.758Z,0
2018-07-20T21:35:02.414Z,0
2018-07-20T21:40:03.033Z,0
2018-07-20T21:45:02.500Z,0
2018-07-20T21:50:02.956Z,0
2018-07-20T21:55:02.535Z,0
2018-07-20T22:00:02.962Z,0
2018-07-20T22:05:02.346Z,0
2018-07-20T22:10:02.834Z,0
2018-07-20T22:15:03.232Z,0
2018-07-20T22:20:02.601Z,0
2018-07-20T22:25:02.935Z,0
2018-07-20T22:30:02.375Z,0
2018-07-20T22:35:02.889Z,0
2018-07-20T22:40:03.331Z,0
2018-07-20T22:45:02.735Z,0
2018-07-20T22:50:03.163Z,0
2018-07-20T22:55:02.857Z,0
2018-07-20T23:00:03.257Z,0
2018-07-20T23:05:03.167Z,0
2018-07-20T23:10:02.760Z,0
2018-07-20T23:15:03.134Z,0
2018-07-20T23:20:02.510Z,0
2018-07-20T23:25:02.992Z,0
2018-07-20T23:30:02.440Z,0
2018-07-20T23:35:03.034Z,0
2018-07-20T23:40:02.480Z,0
2018-07-20T23:45:02.868Z,0
2018-07-20T23:50:03.334Z,0
2018-07-20T23:55:02.679Z,0
